createdAt,value
2018-12-22T00:00:16.683Z,8.50
2018-12-22T00:00:53.608Z,8.50
2018-12-22T00:01:29.655Z,8.50
2018-12-22T00:02:07.190Z,8.50
2018-12-22T00:02:43.228Z,8.50
2018-12-22T00:03:19.463Z,8.50
2018-12-22T00:03:55.470Z,8.50
2018-12-22T00:04:31.884Z,8.50
2018-12-22T00:05:08.789Z,8.50
2018-12-22T00:05:44.846Z,8.50
2018-12-22T00:06:20.965Z,8.50
2018-12-22T00:06:56.965Z,8.50
2018-12-22T00:07:33.375Z,8.50
2018-12-22T00:08:09.374Z,8.50
2018-12-22T00:08:45.398Z,8.50
2018-12-22T00:09:22.431Z,8.50
2018-12-22T00:09:58.598Z,8.50
2018-12-22T00:10:34.993Z,8.50
2018-12-22T00:11:10.994Z,8.50
2018-12-22T00:11:47.413Z,8.50
2018-12-22T00:12:23.657Z,8.50
2018-12-22T00:12:59.727Z,8.50
2018-12-22T00:13:35.721Z,8.50
2018-12-22T00:14:12.259Z,8.50
2018-12-22T00:14:48.395Z,8.50
2018-12-22T00:15:27.624Z,8.50
2018-12-22T00:16:04.223Z,8.40
2018-12-22T00:16:40.294Z,8.50
2018-12-22T00:17:16.391Z,8.40
2018-12-22T00:17:52.476Z,8.50
2018-12-22T00:18:28.504Z,8.40
2018-12-22T00:19:04.909Z,8.50
2018-12-22T00:19:40.933Z,8.50
2018-12-22T00:20:16.982Z,8.40
2018-12-22T00:20:53.851Z,8.50
2018-12-22T00:21:29.942Z,8.50
2018-12-22T00:22:06.403Z,8.50
2018-12-22T00:22:42.980Z,8.50
2018-12-22T00:23:19.074Z,8.40
2018-12-22T00:23:55.455Z,8.50
2018-12-22T00:24:31.545Z,8.40
2018-12-22T00:25:08.361Z,8.40
2018-12-22T00:25:44.439Z,8.40
2018-12-22T00:26:20.456Z,8.40
2018-12-22T00:26:57.265Z,8.40
2018-12-22T00:27:34.385Z,8.40
2018-12-22T00:28:10.389Z,8.40
2018-12-22T00:28:46.410Z,8.40
2018-12-22T00:29:22.576Z,8.40
2018-12-22T00:29:58.566Z,8.40
2018-12-22T00:30:35.818Z,8.40
2018-12-22T00:31:12.266Z,8.40
2018-12-22T00:32:32.718Z,8.40
2018-12-22T00:33:09.975Z,8.40
2018-12-22T00:33:46.022Z,8.40
2018-12-22T00:34:22.504Z,8.40
2018-12-22T00:34:58.562Z,8.40
2018-12-22T00:35:34.593Z,8.40
2018-12-22T00:36:11.055Z,8.40
2018-12-22T00:36:47.519Z,8.40
2018-12-22T00:37:23.571Z,8.40
2018-12-22T00:37:59.641Z,8.40
2018-12-22T00:38:35.659Z,8.40
2018-12-22T00:39:12.569Z,8.40
2018-12-22T00:39:49.787Z,8.40
2018-12-22T00:40:26.229Z,8.30
2018-12-22T00:41:04.571Z,8.30
2018-12-22T00:41:41.307Z,8.30
2018-12-22T00:42:18.486Z,8.30
2018-12-22T00:42:54.488Z,8.30
2018-12-22T00:43:30.519Z,8.30
2018-12-22T00:44:07.013Z,8.30
2018-12-22T00:44:43.073Z,8.30
2018-12-22T00:45:19.119Z,8.30
2018-12-22T00:45:55.163Z,8.30
2018-12-22T00:46:31.389Z,8.30
2018-12-22T00:47:07.933Z,8.30
2018-12-22T00:47:44.049Z,8.30
2018-12-22T00:48:20.360Z,8.30
2018-12-22T00:48:56.500Z,8.30
2018-12-22T00:49:32.560Z,8.30
2018-12-22T00:50:09.000Z,8.30
2018-12-22T00:50:45.467Z,8.30
2018-12-22T00:51:21.593Z,8.30
2018-12-22T00:51:57.693Z,8.30
2018-12-22T00:52:33.844Z,8.30
2018-12-22T00:53:09.865Z,8.30
2018-12-22T00:53:46.100Z,8.30
2018-12-22T00:54:22.104Z,8.30
2018-12-22T00:54:58.127Z,8.20
2018-12-22T00:55:34.152Z,8.30
2018-12-22T00:56:10.526Z,8.20
2018-12-22T00:56:47.181Z,8.20
2018-12-22T00:57:23.371Z,8.20
2018-12-22T00:57:59.417Z,8.20
2018-12-22T00:58:35.618Z,8.20
2018-12-22T00:59:11.695Z,8.20
2018-12-22T00:59:48.401Z,8.20
2018-12-22T01:00:24.540Z,8.20
2018-12-22T01:01:00.596Z,8.10
2018-12-22T01:01:36.879Z,8.10
2018-12-22T01:02:12.920Z,8.10
2018-12-22T01:02:49.047Z,8.10
2018-12-22T01:03:25.513Z,8.10
2018-12-22T01:04:01.770Z,8.00
2018-12-22T01:04:37.831Z,8.00
2018-12-22T01:05:13.860Z,8.00
2018-12-22T01:05:49.874Z,8.00
2018-12-22T01:06:25.920Z,7.90
2018-12-22T01:07:01.955Z,7.90
2018-12-22T01:07:38.389Z,7.90
2018-12-22T01:08:14.393Z,7.90
2018-12-22T01:08:50.381Z,7.90
2018-12-22T01:09:27.477Z,7.90
2018-12-22T01:10:04.218Z,7.80
2018-12-22T01:10:40.647Z,7.80
2018-12-22T01:11:16.807Z,7.80
2018-12-22T01:11:52.827Z,7.80
2018-12-22T01:12:29.298Z,7.80
2018-12-22T01:13:05.385Z,7.80
2018-12-22T01:13:41.627Z,7.70
2018-12-22T01:14:17.635Z,7.70
2018-12-22T01:14:53.705Z,7.80
2018-12-22T01:15:29.772Z,7.70
2018-12-22T01:16:06.179Z,7.70
2018-12-22T01:16:44.707Z,7.70
2018-12-22T01:17:20.595Z,7.70
2018-12-22T01:17:57.386Z,7.70
2018-12-22T01:18:33.401Z,7.70
2018-12-22T01:19:09.413Z,7.70
2018-12-22T01:19:45.422Z,7.70
2018-12-22T01:20:21.483Z,7.70
2018-12-22T01:20:57.889Z,7.70
2018-12-22T01:21:33.968Z,7.70
2018-12-22T01:22:10.028Z,7.60
2018-12-22T01:22:46.465Z,7.70
2018-12-22T01:23:22.920Z,7.60
2018-12-22T01:23:58.986Z,7.60
2018-12-22T01:24:35.434Z,7.60
2018-12-22T01:25:11.462Z,7.60
2018-12-22T01:25:47.512Z,7.60
2018-12-22T01:26:23.555Z,7.60
2018-12-22T01:26:59.640Z,7.60
2018-12-22T01:27:36.664Z,7.60
2018-12-22T01:28:13.181Z,7.60
2018-12-22T01:28:49.351Z,7.60
2018-12-22T01:29:25.800Z,7.60
2018-12-22T01:30:02.862Z,7.60
2018-12-22T01:30:39.010Z,7.60
2018-12-22T01:31:15.186Z,7.60
2018-12-22T01:31:51.466Z,7.60
2018-12-22T01:32:28.898Z,7.60
2018-12-22T01:33:05.764Z,7.60
2018-12-22T01:33:42.728Z,7.60
2018-12-22T01:34:19.120Z,7.60
2018-12-22T01:34:55.142Z,7.60
2018-12-22T01:35:31.609Z,7.60
2018-12-22T01:36:08.104Z,7.50
2018-12-22T01:36:44.166Z,7.50
2018-12-22T01:37:21.251Z,7.50
2018-12-22T01:37:57.270Z,7.50
2018-12-22T01:38:33.706Z,7.50
2018-12-22T01:39:10.156Z,7.50
2018-12-22T01:39:46.655Z,7.50
2018-12-22T01:40:23.094Z,7.50
2018-12-22T01:40:59.138Z,7.50
2018-12-22T01:41:35.185Z,7.50
2018-12-22T01:42:11.648Z,7.50
2018-12-22T01:42:48.073Z,7.50
2018-12-22T01:43:24.268Z,7.50
2018-12-22T01:44:00.300Z,7.50
2018-12-22T01:44:36.366Z,7.50
2018-12-22T01:45:12.822Z,7.50
2018-12-22T01:45:49.668Z,7.50
2018-12-22T01:46:25.730Z,7.50
2018-12-22T01:47:02.198Z,7.50
2018-12-22T01:47:38.650Z,7.50
2018-12-22T01:48:15.114Z,7.50
2018-12-22T01:48:51.146Z,7.50
2018-12-22T01:49:27.624Z,7.50
2018-12-22T01:50:04.666Z,7.50
2018-12-22T01:50:40.733Z,7.50
2018-12-22T01:51:17.295Z,7.50
2018-12-22T01:51:53.320Z,7.50
2018-12-22T01:52:29.346Z,7.50
2018-12-22T01:53:05.407Z,7.50
2018-12-22T01:53:41.441Z,7.40
2018-12-22T01:54:17.474Z,7.40
2018-12-22T01:54:53.912Z,7.50
2018-12-22T01:55:29.943Z,7.40
2018-12-22T01:56:05.977Z,7.50
2018-12-22T01:56:42.028Z,7.50
2018-12-22T01:57:18.502Z,7.50
2018-12-22T01:57:54.896Z,7.40
2018-12-22T01:58:31.464Z,7.40
2018-12-22T01:59:07.513Z,7.40
2018-12-22T01:59:44.046Z,7.40
2018-12-22T02:00:20.243Z,7.40
2018-12-22T02:00:56.652Z,7.40
2018-12-22T02:01:32.818Z,7.40
2018-12-22T02:02:08.864Z,7.40
2018-12-22T02:02:44.928Z,7.40
2018-12-22T02:03:20.977Z,7.40
2018-12-22T02:03:57.166Z,7.40
2018-12-22T02:04:33.516Z,7.40
2018-12-22T02:05:09.974Z,7.40
2018-12-22T02:05:46.019Z,7.40
2018-12-22T02:06:22.122Z,7.40
2018-12-22T02:06:58.504Z,7.40
2018-12-22T02:07:34.730Z,7.40
2018-12-22T02:08:10.784Z,7.40
2018-12-22T02:08:46.799Z,7.40
2018-12-22T02:09:22.856Z,7.40
2018-12-22T02:09:58.886Z,7.40
2018-12-22T02:10:35.275Z,7.40
2018-12-22T02:11:11.324Z,7.40
2018-12-22T02:11:47.392Z,7.40
2018-12-22T02:12:23.765Z,7.40
2018-12-22T02:12:59.808Z,7.40
2018-12-22T02:13:35.871Z,7.40
2018-12-22T02:14:11.928Z,7.40
2018-12-22T02:14:47.972Z,7.40
2018-12-22T02:15:24.426Z,7.40
2018-12-22T02:16:00.434Z,7.40
2018-12-22T02:16:36.518Z,7.40
2018-12-22T02:17:12.512Z,7.40
2018-12-22T02:17:48.556Z,7.30
2018-12-22T02:18:25.015Z,7.30
2018-12-22T02:19:01.488Z,7.30
2018-12-22T02:19:37.542Z,7.30
2018-12-22T02:20:13.589Z,7.30
2018-12-22T02:20:50.456Z,7.30
2018-12-22T02:21:26.542Z,7.30
2018-12-22T02:22:02.984Z,7.30
2018-12-22T02:22:39.858Z,7.30
2018-12-22T02:23:15.950Z,7.30
2018-12-22T02:23:52.009Z,7.30
2018-12-22T02:24:28.129Z,7.30
2018-12-22T02:25:05.552Z,7.30
2018-12-22T02:25:42.007Z,7.30
2018-12-22T02:26:18.059Z,7.30
2018-12-22T02:26:54.094Z,7.30
2018-12-22T02:27:30.119Z,7.30
2018-12-22T02:28:06.578Z,7.30
2018-12-22T02:28:42.625Z,7.30
2018-12-22T02:29:19.083Z,7.30
2018-12-22T02:29:55.409Z,7.30
2018-12-22T02:30:32.123Z,7.30
2018-12-22T02:31:08.255Z,7.30
2018-12-22T02:31:44.754Z,7.30
2018-12-22T02:32:20.793Z,7.30
2018-12-22T02:32:56.835Z,7.30
2018-12-22T02:33:32.893Z,7.30
2018-12-22T02:34:08.925Z,7.30
2018-12-22T02:34:45.379Z,7.20
2018-12-22T02:35:22.656Z,7.20
2018-12-22T02:35:58.692Z,7.20
2018-12-22T02:36:34.711Z,7.20
2018-12-22T02:37:11.168Z,7.20
2018-12-22T02:37:47.329Z,7.30
2018-12-22T02:38:23.822Z,7.30
2018-12-22T02:38:59.871Z,7.30
2018-12-22T02:39:36.157Z,7.30
2018-12-22T02:40:12.190Z,7.30
2018-12-22T02:40:48.615Z,7.30
2018-12-22T02:41:24.823Z,7.30
2018-12-22T02:42:01.011Z,7.30
2018-12-22T02:42:37.051Z,7.30
2018-12-22T02:43:13.567Z,7.30
2018-12-22T02:43:50.039Z,7.20
2018-12-22T02:44:26.064Z,7.30
2018-12-22T02:45:02.096Z,7.30
2018-12-22T02:45:38.515Z,7.30
2018-12-22T02:46:14.963Z,7.30
2018-12-22T02:46:50.999Z,7.20
2018-12-22T02:47:27.160Z,7.30
2018-12-22T02:48:03.608Z,7.20
2018-12-22T02:48:39.649Z,7.20
2018-12-22T02:49:15.710Z,7.20
2018-12-22T02:49:52.145Z,7.20
2018-12-22T02:50:28.171Z,7.20
2018-12-22T02:51:04.591Z,7.20
2018-12-22T02:51:40.939Z,7.20
2018-12-22T02:52:17.007Z,7.20
2018-12-22T02:52:53.044Z,7.20
2018-12-22T02:53:29.083Z,7.20
2018-12-22T02:54:05.327Z,7.20
2018-12-22T02:54:41.336Z,7.20
2018-12-22T02:55:17.383Z,7.10
2018-12-22T02:55:53.861Z,7.10
2018-12-22T02:56:29.882Z,7.10
2018-12-22T02:57:05.923Z,7.10
2018-12-22T02:57:42.421Z,7.10
2018-12-22T02:58:19.303Z,7.10
2018-12-22T02:58:55.426Z,7.10
2018-12-22T02:59:31.469Z,7.10
2018-12-22T03:00:10.481Z,7.10
2018-12-22T03:00:46.527Z,7.10
2018-12-22T03:01:22.566Z,7.00
2018-12-22T03:01:59.046Z,7.00
2018-12-22T03:02:35.153Z,7.00
2018-12-22T03:03:11.215Z,7.00
2018-12-22T03:03:47.991Z,7.00
2018-12-22T03:04:24.561Z,7.00
2018-12-22T03:05:01.129Z,7.00
2018-12-22T03:05:37.197Z,7.00
2018-12-22T03:06:13.242Z,7.00
2018-12-22T03:06:49.305Z,7.00
2018-12-22T03:07:25.371Z,6.90
2018-12-22T03:08:01.833Z,6.90
2018-12-22T03:08:37.874Z,6.90
2018-12-22T03:09:13.952Z,6.90
2018-12-22T03:09:50.033Z,6.80
2018-12-22T03:10:26.085Z,6.80
2018-12-22T03:11:02.586Z,6.80
2018-12-22T03:11:38.611Z,6.80
2018-12-22T03:12:14.653Z,6.80
2018-12-22T03:12:51.111Z,6.80
2018-12-22T03:13:27.165Z,6.80
2018-12-22T03:14:03.918Z,6.70
2018-12-22T03:14:39.983Z,6.70
2018-12-22T03:15:16.434Z,6.70
2018-12-22T03:15:52.459Z,6.70
2018-12-22T03:16:28.525Z,6.70
2018-12-22T03:17:04.949Z,6.70
2018-12-22T03:17:41.655Z,6.70
2018-12-22T03:18:17.880Z,6.70
2018-12-22T03:18:54.334Z,6.60
2018-12-22T03:19:30.408Z,6.60
2018-12-22T03:20:07.495Z,6.60
2018-12-22T03:20:43.545Z,6.60
2018-12-22T03:21:19.601Z,6.60
2018-12-22T03:21:55.702Z,6.60
2018-12-22T03:22:32.249Z,6.60
2018-12-22T03:23:08.644Z,6.60
2018-12-22T03:23:44.698Z,6.60
2018-12-22T03:24:21.376Z,6.60
2018-12-22T03:24:57.423Z,6.60
2018-12-22T03:25:33.481Z,6.60
2018-12-22T03:26:10.256Z,6.60
2018-12-22T03:26:46.312Z,6.60
2018-12-22T03:27:22.435Z,6.60
2018-12-22T03:27:58.469Z,6.60
2018-12-22T03:28:34.590Z,6.60
2018-12-22T03:29:15.478Z,6.60
2018-12-22T03:29:48.752Z,6.60
2018-12-22T03:30:25.270Z,6.60
2018-12-22T03:31:01.987Z,6.60
2018-12-22T03:31:38.017Z,6.50
2018-12-22T03:32:14.057Z,6.50
2018-12-22T03:32:50.509Z,6.50
2018-12-22T03:33:26.560Z,6.50
2018-12-22T03:34:02.606Z,6.50
2018-12-22T03:34:38.643Z,6.50
2018-12-22T03:35:15.020Z,6.50
2018-12-22T03:35:51.065Z,6.50
2018-12-22T03:36:27.475Z,6.50
2018-12-22T03:37:04.295Z,6.50
2018-12-22T03:37:40.323Z,6.50
2018-12-22T03:38:16.659Z,6.50
2018-12-22T03:38:53.100Z,6.50
2018-12-22T03:39:29.092Z,6.50
2018-12-22T03:40:07.388Z,6.50
2018-12-22T03:40:43.863Z,6.50
2018-12-22T03:41:19.981Z,6.50
2018-12-22T03:41:56.068Z,6.40
2018-12-22T03:42:32.108Z,6.50
2018-12-22T03:43:08.691Z,6.40
2018-12-22T03:43:45.138Z,6.40
2018-12-22T03:44:21.220Z,6.40
2018-12-22T03:44:57.258Z,6.40
2018-12-22T03:45:33.552Z,6.40
2018-12-22T03:46:09.641Z,6.40
2018-12-22T03:46:45.706Z,6.50
2018-12-22T03:47:21.789Z,6.50
2018-12-22T03:47:57.876Z,6.40
2018-12-22T03:48:33.892Z,6.40
2018-12-22T03:49:09.954Z,6.40
2018-12-22T03:49:46.118Z,6.40
2018-12-22T03:50:22.850Z,6.40
2018-12-22T03:50:59.055Z,6.40
2018-12-22T03:51:35.829Z,6.40
2018-12-22T03:52:11.930Z,6.30
2018-12-22T03:52:47.914Z,6.30
2018-12-22T03:53:23.930Z,6.30
2018-12-22T03:53:59.955Z,6.30
2018-12-22T03:54:35.952Z,6.30
2018-12-22T03:55:12.407Z,6.30
2018-12-22T03:55:48.824Z,6.30
2018-12-22T03:56:25.259Z,6.30
2018-12-22T03:57:01.354Z,6.30
2018-12-22T03:57:37.769Z,6.30
2018-12-22T03:58:13.786Z,6.30
2018-12-22T03:58:50.241Z,6.30
2018-12-22T03:59:26.291Z,6.20
2018-12-22T04:00:03.053Z,6.20
2018-12-22T04:00:39.658Z,6.20
2018-12-22T04:01:15.927Z,6.20
2018-12-22T04:01:52.639Z,6.20
2018-12-22T04:02:28.735Z,6.20
2018-12-22T04:03:04.743Z,6.20
2018-12-22T04:03:40.892Z,6.20
2018-12-22T04:04:17.305Z,6.20
2018-12-22T04:04:53.736Z,6.20
2018-12-22T04:05:29.775Z,6.20
2018-12-22T04:06:06.194Z,6.20
2018-12-22T04:06:42.567Z,6.10
2018-12-22T04:07:18.563Z,6.10
2018-12-22T04:07:55.005Z,6.10
2018-12-22T04:08:31.008Z,6.10
2018-12-22T04:09:08.993Z,6.10
2018-12-22T04:09:45.910Z,6.10
2018-12-22T04:10:22.546Z,6.00
2018-12-22T04:10:58.591Z,6.00
2018-12-22T04:11:34.602Z,6.00
2018-12-22T04:12:11.054Z,6.00
2018-12-22T04:12:47.074Z,6.00
2018-12-22T04:13:23.091Z,6.00
2018-12-22T04:13:59.096Z,6.00
2018-12-22T04:14:35.115Z,6.00
2018-12-22T04:15:11.158Z,6.00
2018-12-22T04:15:47.583Z,6.00
2018-12-22T04:16:24.529Z,6.00
2018-12-22T04:17:00.548Z,6.00
2018-12-22T04:17:36.955Z,6.00
2018-12-22T04:18:13.389Z,6.00
2018-12-22T04:18:49.416Z,6.00
2018-12-22T04:19:25.512Z,6.00
2018-12-22T04:20:01.656Z,6.00
2018-12-22T04:20:38.140Z,6.00
2018-12-22T04:21:14.215Z,6.00
2018-12-22T04:21:51.334Z,6.00
2018-12-22T04:22:27.398Z,6.00
2018-12-22T04:23:03.854Z,6.00
2018-12-22T04:23:39.903Z,6.00
2018-12-22T04:24:16.063Z,6.00
2018-12-22T04:24:53.992Z,6.00
2018-12-22T04:25:30.064Z,5.90
2018-12-22T04:26:06.110Z,5.90
2018-12-22T04:26:42.143Z,5.90
2018-12-22T04:27:18.182Z,5.90
2018-12-22T04:27:54.585Z,5.90
2018-12-22T04:28:30.663Z,5.90
2018-12-22T04:29:07.106Z,5.90
2018-12-22T04:29:43.195Z,5.90
2018-12-22T04:30:19.314Z,5.90
2018-12-22T04:30:55.398Z,5.90
2018-12-22T04:31:32.016Z,5.90
2018-12-22T04:32:08.455Z,5.90
2018-12-22T04:32:44.901Z,5.90
2018-12-22T04:33:20.940Z,5.90
2018-12-22T04:33:57.019Z,5.90
2018-12-22T04:34:33.110Z,5.80
2018-12-22T04:35:09.567Z,5.80
2018-12-22T04:35:45.662Z,5.80
2018-12-22T04:36:21.727Z,5.80
2018-12-22T04:36:57.762Z,5.80
2018-12-22T04:37:33.809Z,5.80
2018-12-22T04:38:09.847Z,5.80
2018-12-22T04:38:45.928Z,5.80
2018-12-22T04:39:22.362Z,5.70
2018-12-22T04:39:58.430Z,5.70
2018-12-22T04:40:34.481Z,5.70
2018-12-22T04:41:10.544Z,5.70
2018-12-22T04:41:47.031Z,5.70
2018-12-22T04:42:23.472Z,5.70
2018-12-22T04:42:59.902Z,5.70
2018-12-22T04:43:36.229Z,5.70
2018-12-22T04:44:12.668Z,5.70
2018-12-22T04:44:48.714Z,5.70
2018-12-22T04:45:24.783Z,5.70
2018-12-22T04:46:00.845Z,5.70
2018-12-22T04:46:36.890Z,5.70
2018-12-22T04:47:12.919Z,5.70
2018-12-22T04:47:48.966Z,5.70
2018-12-22T04:48:25.459Z,5.60
2018-12-22T04:49:02.311Z,5.70
2018-12-22T04:49:39.361Z,5.70
2018-12-22T04:50:15.392Z,5.70
2018-12-22T04:50:51.894Z,5.70
2018-12-22T04:51:27.919Z,5.70
2018-12-22T04:52:04.296Z,5.70
2018-12-22T04:52:40.320Z,5.70
2018-12-22T04:53:16.702Z,5.70
2018-12-22T04:53:53.099Z,5.70
2018-12-22T04:54:29.098Z,5.60
2018-12-22T04:55:05.987Z,5.60
2018-12-22T04:55:42.481Z,5.60
2018-12-22T04:56:19.310Z,5.60
2018-12-22T04:56:55.326Z,5.60
2018-12-22T04:57:31.312Z,5.60
2018-12-22T04:58:07.334Z,5.60
2018-12-22T04:58:43.339Z,5.60
2018-12-22T04:59:19.354Z,5.60
2018-12-22T04:59:55.376Z,5.60
2018-12-22T05:00:31.476Z,5.60
2018-12-22T05:01:07.960Z,5.60
2018-12-22T05:01:44.171Z,5.60
2018-12-22T05:02:20.569Z,5.60
2018-12-22T05:02:56.601Z,5.60
2018-12-22T05:03:32.661Z,5.60
2018-12-22T05:04:08.655Z,5.60
2018-12-22T05:04:45.104Z,5.60
2018-12-22T05:05:21.087Z,5.60
2018-12-22T05:05:57.108Z,5.60
2018-12-22T05:06:33.532Z,5.60
2018-12-22T05:07:09.530Z,5.60
2018-12-22T05:07:45.562Z,5.60
2018-12-22T05:08:21.563Z,5.60
2018-12-22T05:08:57.605Z,5.60
2018-12-22T05:09:33.632Z,5.60
2018-12-22T05:10:11.063Z,5.60
2018-12-22T05:10:48.334Z,5.60
2018-12-22T05:11:24.378Z,5.60
2018-12-22T05:12:00.389Z,5.60
2018-12-22T05:12:36.451Z,5.50
2018-12-22T05:13:12.471Z,5.50
2018-12-22T05:13:48.538Z,5.50
2018-12-22T05:14:24.640Z,5.50
2018-12-22T05:15:00.715Z,5.50
2018-12-22T05:15:37.116Z,5.50
2018-12-22T05:16:14.256Z,5.50
2018-12-22T05:16:50.715Z,5.50
2018-12-22T05:17:26.724Z,5.50
2018-12-22T05:18:03.680Z,5.50
2018-12-22T05:18:39.950Z,5.50
2018-12-22T05:19:15.995Z,5.50
2018-12-22T05:19:53.350Z,5.40
2018-12-22T05:20:30.289Z,5.50
2018-12-22T05:21:06.733Z,5.50
2018-12-22T05:21:42.964Z,5.40
2018-12-22T05:22:19.778Z,5.40
2018-12-22T05:22:56.201Z,5.40
2018-12-22T05:23:32.231Z,5.40
2018-12-22T05:24:08.272Z,5.40
2018-12-22T05:24:44.588Z,5.40
2018-12-22T05:25:20.650Z,5.40
2018-12-22T05:25:56.667Z,5.40
2018-12-22T05:26:32.722Z,5.40
2018-12-22T05:27:09.491Z,5.40
2018-12-22T05:27:45.537Z,5.40
2018-12-22T05:28:21.663Z,5.40
2018-12-22T05:28:58.219Z,5.40
2018-12-22T05:29:34.262Z,5.40
2018-12-22T05:30:10.666Z,5.40
2018-12-22T05:30:46.658Z,5.40
2018-12-22T05:31:23.083Z,5.40
2018-12-22T05:31:59.466Z,5.40
2018-12-22T05:32:35.480Z,5.40
2018-12-22T05:33:11.490Z,5.40
2018-12-22T05:33:47.530Z,5.30
2018-12-22T05:34:23.601Z,5.30
2018-12-22T05:34:59.661Z,5.30
2018-12-22T05:35:35.718Z,5.30
2018-12-22T05:36:12.468Z,5.30
2018-12-22T05:36:48.526Z,5.30
2018-12-22T05:37:25.210Z,5.30
2018-12-22T05:38:01.249Z,5.30
2018-12-22T05:38:37.571Z,5.30
2018-12-22T05:39:13.906Z,5.30
2018-12-22T05:39:49.948Z,5.30
2018-12-22T05:40:26.400Z,5.30
2018-12-22T05:41:02.447Z,5.20
2018-12-22T05:41:38.489Z,5.20
2018-12-22T05:42:14.547Z,5.20
2018-12-22T05:42:50.601Z,5.20
2018-12-22T05:43:26.837Z,5.20
2018-12-22T05:44:03.802Z,5.20
2018-12-22T05:44:39.839Z,5.20
2018-12-22T05:45:15.890Z,5.20
2018-12-22T05:45:52.262Z,5.20
2018-12-22T05:46:28.317Z,5.20
2018-12-22T05:47:04.761Z,5.10
2018-12-22T05:47:40.864Z,5.10
2018-12-22T05:48:17.295Z,5.10
2018-12-22T05:48:53.795Z,5.10
2018-12-22T05:49:30.281Z,5.10
2018-12-22T05:50:07.013Z,5.10
2018-12-22T05:50:43.070Z,5.10
2018-12-22T05:51:19.108Z,5.10
2018-12-22T05:51:55.173Z,5.10
2018-12-22T05:52:31.226Z,5.10
2018-12-22T05:53:07.669Z,5.10
2018-12-22T05:53:43.763Z,5.10
2018-12-22T05:54:19.947Z,5.10
2018-12-22T05:54:55.991Z,5.10
2018-12-22T05:55:32.463Z,5.10
2018-12-22T05:56:08.559Z,5.10
2018-12-22T05:56:44.616Z,5.10
2018-12-22T05:57:20.989Z,5.10
2018-12-22T05:57:57.527Z,5.10
2018-12-22T05:58:33.593Z,5.10
2018-12-22T05:59:09.638Z,5.10
2018-12-22T05:59:46.111Z,5.00
2018-12-22T06:00:22.546Z,5.10
2018-12-22T06:00:59.004Z,5.10
2018-12-22T06:01:35.064Z,5.10
2018-12-22T06:02:11.164Z,5.10
2018-12-22T06:02:47.854Z,5.10
2018-12-22T06:03:23.893Z,5.10
2018-12-22T06:04:00.838Z,5.10
2018-12-22T06:04:36.887Z,5.10
2018-12-22T06:05:12.956Z,5.10
2018-12-22T06:05:49.004Z,5.10
2018-12-22T06:06:25.428Z,5.10
2018-12-22T06:07:01.481Z,5.10
2018-12-22T06:07:37.566Z,5.10
2018-12-22T06:08:14.022Z,5.10
2018-12-22T06:08:50.062Z,5.10
2018-12-22T06:09:26.108Z,5.10
2018-12-22T06:10:02.151Z,5.10
2018-12-22T06:10:38.200Z,5.10
2018-12-22T06:11:14.248Z,5.10
2018-12-22T06:11:50.307Z,5.10
2018-12-22T06:12:26.786Z,5.10
2018-12-22T06:13:03.284Z,5.10
2018-12-22T06:13:39.344Z,5.10
2018-12-22T06:14:15.407Z,5.10
2018-12-22T06:14:51.474Z,5.10
2018-12-22T06:15:27.484Z,5.10
2018-12-22T06:16:03.932Z,5.10
2018-12-22T06:16:39.978Z,5.10
2018-12-22T06:17:16.429Z,5.10
2018-12-22T06:17:52.512Z,5.10
2018-12-22T06:18:28.520Z,5.10
2018-12-22T06:19:04.983Z,5.10
2018-12-22T06:19:41.027Z,5.10
2018-12-22T06:20:17.500Z,5.10
2018-12-22T06:20:53.576Z,5.10
2018-12-22T06:21:29.614Z,5.10
2018-12-22T06:22:06.426Z,5.10
2018-12-22T06:22:42.437Z,5.10
2018-12-22T06:23:18.938Z,5.10
2018-12-22T06:23:55.010Z,5.10
2018-12-22T06:24:31.022Z,5.10
2018-12-22T06:25:07.469Z,5.10
2018-12-22T06:25:43.949Z,5.10
2018-12-22T06:26:19.980Z,5.10
2018-12-22T06:26:56.070Z,5.10
2018-12-22T06:27:32.098Z,5.10
2018-12-22T06:28:08.542Z,5.10
2018-12-22T06:28:44.972Z,5.10
2018-12-22T06:29:21.450Z,5.10
2018-12-22T06:29:58.369Z,5.10
2018-12-22T06:30:34.388Z,5.00
2018-12-22T06:31:10.437Z,5.00
2018-12-22T06:31:47.302Z,5.00
2018-12-22T06:32:23.297Z,5.00
2018-12-22T06:32:59.334Z,5.00
2018-12-22T06:33:35.747Z,5.00
2018-12-22T06:34:11.790Z,5.00
2018-12-22T06:34:48.086Z,5.00
2018-12-22T06:35:24.490Z,5.00
2018-12-22T06:36:00.479Z,4.90
2018-12-22T06:36:36.899Z,4.90
2018-12-22T06:37:12.959Z,4.90
2018-12-22T06:37:49.353Z,4.90
2018-12-22T06:38:25.442Z,4.90
2018-12-22T06:39:01.509Z,4.90
2018-12-22T06:39:38.658Z,4.90
2018-12-22T06:40:15.130Z,4.90
2018-12-22T06:40:51.279Z,4.90
2018-12-22T06:41:27.792Z,4.80
2018-12-22T06:42:04.259Z,4.80
2018-12-22T06:42:40.293Z,4.80
2018-12-22T06:43:17.380Z,4.80
2018-12-22T06:43:53.508Z,4.80
2018-12-22T06:44:29.582Z,4.80
2018-12-22T06:45:06.276Z,4.80
2018-12-22T06:45:42.368Z,4.70
2018-12-22T06:46:18.638Z,4.80
2018-12-22T06:46:54.908Z,4.70
2018-12-22T06:47:30.907Z,4.70
2018-12-22T06:48:06.916Z,4.70
2018-12-22T06:48:43.038Z,4.70
2018-12-22T06:49:19.102Z,4.70
2018-12-22T06:49:55.170Z,4.70
2018-12-22T06:50:31.994Z,4.70
2018-12-22T06:51:08.406Z,4.70
2018-12-22T06:51:44.720Z,4.70
2018-12-22T06:52:20.720Z,4.70
2018-12-22T06:52:56.738Z,4.70
2018-12-22T06:53:32.751Z,4.70
2018-12-22T06:54:09.201Z,4.70
2018-12-22T06:54:45.227Z,4.70
2018-12-22T06:55:21.636Z,4.70
2018-12-22T06:55:57.678Z,4.70
2018-12-22T06:56:33.674Z,4.70
2018-12-22T06:57:09.702Z,4.70
2018-12-22T06:57:45.714Z,4.70
2018-12-22T06:58:21.734Z,4.60
2018-12-22T06:58:58.598Z,4.60
2018-12-22T06:59:34.626Z,4.60
2018-12-22T07:00:17.550Z,4.60
2018-12-22T07:00:49.408Z,4.60
2018-12-22T07:01:25.462Z,4.60
2018-12-22T07:02:01.476Z,4.60
2018-12-22T07:02:37.907Z,4.60
2018-12-22T07:03:13.938Z,4.60
2018-12-22T07:03:50.109Z,4.60
2018-12-22T07:04:26.366Z,4.60
2018-12-22T07:05:02.679Z,4.60
2018-12-22T07:05:39.281Z,4.60
2018-12-22T07:06:15.744Z,4.60
2018-12-22T07:06:51.788Z,4.60
2018-12-22T07:07:28.220Z,4.60
2018-12-22T07:08:04.707Z,4.60
2018-12-22T07:08:40.723Z,4.60
2018-12-22T07:09:16.761Z,4.60
2018-12-22T07:09:52.778Z,4.60
2018-12-22T07:10:28.833Z,4.60
2018-12-22T07:11:04.910Z,4.60
2018-12-22T07:11:40.972Z,4.60
2018-12-22T07:12:16.971Z,4.50
2018-12-22T07:12:53.788Z,4.60
2018-12-22T07:13:30.208Z,4.60
2018-12-22T07:14:06.632Z,4.60
2018-12-22T07:14:42.673Z,4.60
2018-12-22T07:15:19.122Z,4.60
2018-12-22T07:15:55.542Z,4.60
2018-12-22T07:16:31.566Z,4.60
2018-12-22T07:17:07.978Z,4.60
2018-12-22T07:17:44.373Z,4.60
2018-12-22T07:18:20.390Z,4.60
2018-12-22T07:18:56.835Z,4.60
2018-12-22T07:19:32.910Z,4.60
2018-12-22T07:20:09.334Z,4.60
2018-12-22T07:20:45.347Z,4.60
2018-12-22T07:21:21.754Z,4.60
2018-12-22T07:21:59.861Z,4.60
2018-12-22T07:22:36.278Z,4.60
2018-12-22T07:23:12.718Z,4.60
2018-12-22T07:23:48.726Z,4.60
2018-12-22T07:24:25.154Z,4.60
2018-12-22T07:25:01.290Z,4.60
2018-12-22T07:25:37.341Z,4.60
2018-12-22T07:26:13.348Z,4.60
2018-12-22T07:26:49.747Z,4.60
2018-12-22T07:27:25.728Z,4.60
2018-12-22T07:28:01.772Z,4.60
2018-12-22T07:28:38.191Z,4.60
2018-12-22T07:29:14.306Z,4.60
2018-12-22T07:29:50.388Z,4.60
2018-12-22T07:30:26.902Z,4.70
2018-12-22T07:31:02.935Z,4.60
2018-12-22T07:31:39.760Z,4.60
2018-12-22T07:32:15.903Z,4.70
2018-12-22T07:32:56.848Z,4.60
2018-12-22T07:33:30.142Z,4.70
2018-12-22T07:34:06.160Z,4.70
2018-12-22T07:34:42.187Z,4.60
2018-12-22T07:35:18.198Z,4.70
2018-12-22T07:35:54.214Z,4.60
2018-12-22T07:36:30.206Z,4.70
2018-12-22T07:37:06.626Z,4.60
2018-12-22T07:37:42.656Z,4.70
2018-12-22T07:38:18.660Z,4.70
2018-12-22T07:38:54.720Z,4.70
2018-12-22T07:39:30.802Z,4.70
2018-12-22T07:40:07.238Z,4.70
2018-12-22T07:40:43.280Z,4.70
2018-12-22T07:41:19.703Z,4.70
2018-12-22T07:41:56.102Z,4.60
2018-12-22T07:42:32.119Z,4.60
2018-12-22T07:43:08.910Z,4.60
2018-12-22T07:43:45.370Z,4.60
2018-12-22T07:44:21.424Z,4.60
2018-12-22T07:44:57.826Z,4.60
2018-12-22T07:45:33.846Z,4.60
2018-12-22T07:46:09.868Z,4.60
2018-12-22T07:46:45.993Z,4.60
2018-12-22T07:47:22.011Z,4.60
2018-12-22T07:47:58.034Z,4.60
2018-12-22T07:48:34.462Z,4.60
2018-12-22T07:49:10.478Z,4.60
2018-12-22T07:49:46.561Z,4.60
2018-12-22T07:50:23.052Z,4.60
2018-12-22T07:50:59.060Z,4.60
2018-12-22T07:51:35.078Z,4.60
2018-12-22T07:52:11.557Z,4.60
2018-12-22T07:52:51.559Z,4.60
2018-12-22T07:53:25.694Z,4.60
2018-12-22T07:54:02.168Z,4.60
2018-12-22T07:54:38.252Z,4.60
2018-12-22T07:55:15.141Z,4.60
2018-12-22T07:55:51.187Z,4.60
2018-12-22T07:56:28.086Z,4.50
2018-12-22T07:57:04.660Z,4.50
2018-12-22T07:57:41.140Z,4.50
2018-12-22T07:58:17.628Z,4.50
2018-12-22T07:58:54.390Z,4.50
2018-12-22T07:59:30.438Z,4.60
2018-12-22T08:00:07.395Z,4.60
2018-12-22T08:00:43.482Z,4.60
2018-12-22T08:01:19.969Z,4.50
2018-12-22T08:01:56.330Z,4.50
2018-12-22T08:02:32.910Z,4.50
2018-12-22T08:03:09.311Z,4.50
2018-12-22T08:03:45.382Z,4.60